createdAt,value
2019-04-26T00:00:55.426Z,15.71
2019-04-26T00:03:28.959Z,15.77
2019-04-26T00:05:58.691Z,15.60
2019-04-26T00:08:28.145Z,15.60
2019-04-26T00:11:05.366Z,15.25
2019-04-26T00:16:46.551Z,14.81
2019-04-26T00:19:16.016Z,15.88
2019-04-26T00:21:45.694Z,15.43
2019-04-26T00:24:17.247Z,15.08
2019-04-26T00:26:46.749Z,15.11
2019-04-26T00:29:16.870Z,14.88
2019-04-26T00:31:46.311Z,14.75
2019-04-26T00:34:15.763Z,16.34
2019-04-26T00:36:45.156Z,15.64
2019-04-26T00:39:14.534Z,15.25
2019-04-26T00:41:44.137Z,14.80
2019-04-26T00:44:14.848Z,14.74
2019-04-26T00:46:45.907Z,14.78
2019-04-26T00:49:17.029Z,14.87
2019-04-26T00:51:47.554Z,14.77
2019-04-26T00:54:18.578Z,14.64
2019-04-26T00:56:48.507Z,14.71
2019-04-26T00:59:18.467Z,14.77
2019-04-26T01:01:49.450Z,14.63
2019-04-26T01:04:18.915Z,14.40
2019-04-26T01:06:49.922Z,14.54
2019-04-26T01:09:19.685Z,14.67
2019-04-26T01:11:49.067Z,14.17
2019-04-26T01:14:18.453Z,14.39
2019-04-26T01:16:48.468Z,14.43
2019-04-26T01:19:18.632Z,14.52
2019-04-26T01:21:53.975Z,14.51
2019-04-26T01:24:25.426Z,14.51
2019-04-26T01:26:57.884Z,14.47
2019-04-26T01:29:28.042Z,14.53
2019-04-26T01:32:14.739Z,14.51
2019-04-26T01:37:33.603Z,14.13
2019-04-26T01:40:07.470Z,14.22
2019-04-26T01:42:46.806Z,14.78
2019-04-26T01:45:22.151Z,14.15
2019-04-26T01:47:54.576Z,14.09
2019-04-26T01:50:27.609Z,14.21
2019-04-26T01:52:58.538Z,14.22
2019-04-26T01:55:31.215Z,14.19
2019-04-26T01:58:04.761Z,14.33
2019-04-26T02:00:45.727Z,14.00
2019-04-26T02:03:19.925Z,14.33
2019-04-26T02:05:49.554Z,14.40
2019-04-26T02:08:19.432Z,16.59
2019-04-26T02:10:49.735Z,15.93
2019-04-26T02:13:19.986Z,15.91
2019-04-26T02:15:50.185Z,14.66
2019-04-26T02:18:20.499Z,16.36
2019-04-26T02:20:57.611Z,14.65
2019-04-26T02:23:28.635Z,15.30
2019-04-26T02:25:59.728Z,14.53
2019-04-26T02:28:29.119Z,14.39
2019-04-26T02:30:58.684Z,14.26
2019-04-26T02:33:29.683Z,14.22
2019-04-26T02:35:59.355Z,14.32
2019-04-26T02:38:30.949Z,14.37
2019-04-26T02:41:00.517Z,14.50
2019-04-26T02:43:31.786Z,14.29
2019-04-26T02:46:08.633Z,14.35
2019-04-26T02:48:51.646Z,14.38
2019-04-26T02:51:34.196Z,14.27
2019-04-26T02:54:10.210Z,16.10
2019-04-26T02:56:41.823Z,15.99
2019-04-26T02:59:23.014Z,14.60
2019-04-26T03:01:55.321Z,14.58
2019-04-26T03:04:30.191Z,14.48
2019-04-26T03:07:03.909Z,14.28
2019-04-26T03:09:37.038Z,14.28
2019-04-26T03:12:15.239Z,14.24
2019-04-26T03:14:49.316Z,14.20
2019-04-26T03:17:36.205Z,14.05
2019-04-26T03:20:13.631Z,14.23
2019-04-26T03:22:48.697Z,14.28
2019-04-26T03:25:21.130Z,14.42
2019-04-26T03:28:09.697Z,14.06
2019-04-26T03:31:00.115Z,14.38
2019-04-26T03:33:53.604Z,14.01
2019-04-26T03:36:44.464Z,14.62
2019-04-26T03:39:30.338Z,14.04
2019-04-26T03:42:13.139Z,13.99
2019-04-26T03:44:45.572Z,16.20
2019-04-26T03:47:18.020Z,14.16
2019-04-26T03:50:02.194Z,14.05
2019-04-26T03:53:04.637Z,14.43
2019-04-26T03:55:40.236Z,14.26
2019-04-26T03:58:29.227Z,14.38
2019-04-26T04:01:03.772Z,14.29
2019-04-26T04:03:49.312Z,14.13
2019-04-26T04:06:23.386Z,14.17
2019-04-26T04:08:58.479Z,14.19
2019-04-26T04:11:38.607Z,14.39
2019-04-26T04:14:14.889Z,14.69
2019-04-26T04:16:51.799Z,14.60
2019-04-26T04:19:56.760Z,14.90
2019-04-26T04:22:29.219Z,14.88
2019-04-26T04:25:04.572Z,15.65
2019-04-26T04:27:38.094Z,15.35
2019-04-26T04:30:23.023Z,15.18
2019-04-26T04:32:58.267Z,14.72
2019-04-26T04:35:30.717Z,14.72
2019-04-26T04:38:19.705Z,14.74
2019-04-26T04:41:12.707Z,14.12
2019-04-26T04:43:48.777Z,14.36
2019-04-26T04:47:02.734Z,14.59
2019-04-26T04:49:58.023Z,14.53
2019-04-26T04:52:48.203Z,14.36
2019-04-26T04:55:29.429Z,14.33
2019-04-26T04:58:10.945Z,14.33
2019-04-26T05:01:18.878Z,14.49
2019-04-26T05:04:13.611Z,14.40
2019-04-26T05:07:10.636Z,14.66
2019-04-26T05:09:45.942Z,14.22
2019-04-26T05:12:21.096Z,14.03
2019-04-26T05:15:29.204Z,14.21
2019-04-26T05:18:17.912Z,14.27
2019-04-26T05:20:51.267Z,14.46
2019-04-26T05:23:35.283Z,14.24
2019-04-26T05:26:30.099Z,14.31
2019-04-26T05:29:35.378Z,14.36
2019-04-26T05:32:16.582Z,14.17
2019-04-26T05:34:50.777Z,14.29
2019-04-26T05:37:40.911Z,14.47
2019-04-26T05:40:30.156Z,15.58
2019-04-26T05:43:07.139Z,14.42
2019-04-26T05:46:00.241Z,14.56
2019-04-26T05:49:05.534Z,14.28
2019-04-26T05:52:13.584Z,14.49
2019-04-26T05:54:58.803Z,14.74
2019-04-26T05:57:44.608Z,14.53
2019-04-26T06:00:24.145Z,14.70
2019-04-26T06:03:01.339Z,14.69
2019-04-26T06:05:50.962Z,14.97
2019-04-26T06:08:33.865Z,15.04
2019-04-26T06:11:23.696Z,14.75
2019-04-26T06:14:34.287Z,14.84
2019-04-26T06:17:22.830Z,14.65
2019-04-26T06:20:05.615Z,15.00
2019-04-26T06:22:46.800Z,15.63
2019-04-26T06:25:26.591Z,15.63
2019-04-26T06:28:05.622Z,15.58
2019-04-26T06:30:45.504Z,15.20
2019-04-26T06:33:15.284Z,15.04
2019-04-26T06:35:48.864Z,14.92
2019-04-26T06:38:43.788Z,15.41
2019-04-26T06:41:21.869Z,15.60
2019-04-26T06:44:11.076Z,14.93
2019-04-26T06:46:50.731Z,15.12
2019-04-26T06:49:24.816Z,15.69
2019-04-26T06:52:00.425Z,16.00
2019-04-26T06:54:32.850Z,17.29
2019-04-26T06:57:35.170Z,16.59
2019-04-26T07:00:11.600Z,17.27
2019-04-26T07:03:02.165Z,16.52
2019-04-26T07:05:34.623Z,16.21
2019-04-26T07:08:18.949Z,16.28
2019-04-26T07:11:39.768Z,16.17
2019-04-26T07:14:18.182Z,16.16
2019-04-26T07:16:50.628Z,16.43
2019-04-26T07:19:50.297Z,15.91
2019-04-26T07:23:02.084Z,16.10
2019-04-26T07:26:03.802Z,16.33
2019-04-26T07:28:51.446Z,16.57
2019-04-26T07:31:52.479Z,16.30
2019-04-26T07:34:44.888Z,16.57
2019-04-26T07:37:20.131Z,16.60
2019-04-26T07:40:11.838Z,16.61
2019-04-26T07:43:17.337Z,16.77
2019-04-26T07:46:06.328Z,16.85
2019-04-26T07:48:55.083Z,17.14
2019-04-26T07:51:50.314Z,17.34
2019-04-26T07:54:40.794Z,17.16
2019-04-26T07:57:48.923Z,17.26
2019-04-26T08:00:44.783Z,17.16
2019-04-26T08:03:16.114Z,17.05
2019-04-26T08:06:05.791Z,17.01
2019-04-26T08:08:38.234Z,17.38
2019-04-26T08:11:22.566Z,17.46
2019-04-26T08:14:13.239Z,17.57
2019-04-26T08:17:08.207Z,17.54
2019-04-26T08:19:46.388Z,17.36
2019-04-26T08:22:22.857Z,17.33
2019-04-26T08:24:52.756Z,17.48
2019-04-26T08:27:25.204Z,17.42
2019-04-26T08:30:03.418Z,17.70
2019-04-26T08:32:35.637Z,17.74
2019-04-26T08:35:18.549Z,17.98
2019-04-26T08:37:52.689Z,17.75
2019-04-26T08:40:30.929Z,18.17
2019-04-26T08:43:03.708Z,18.27
2019-04-26T08:45:37.567Z,18.50
2019-04-26T08:48:29.420Z,18.66
2019-04-26T08:51:09.512Z,18.93
2019-04-26T08:53:42.102Z,18.75
2019-04-26T08:56:15.312Z,18.97
2019-04-26T08:58:47.855Z,19.18
2019-04-26T09:01:21.940Z,19.18
2019-04-26T09:03:56.005Z,19.21
2019-04-26T09:06:34.786Z,19.94
2019-04-26T09:09:08.873Z,19.94
2019-04-26T09:11:40.966Z,19.42
2019-04-26T09:14:11.097Z,19.40
2019-04-26T09:16:50.184Z,19.98
2019-04-26T09:19:12.773Z,20.58
2019-04-26T09:21:47.483Z,21.10
2019-04-26T09:24:21.088Z,20.60
2019-04-26T09:26:53.009Z,20.71
2019-04-26T09:29:26.417Z,22.15
2019-04-26T09:31:59.262Z,24.48
2019-04-26T09:34:33.688Z,24.25
2019-04-26T09:37:03.076Z,24.31
2019-04-26T09:39:32.604Z,23.09
2019-04-26T09:42:19.650Z,22.82
2019-04-26T09:44:50.668Z,22.75
2019-04-26T09:47:37.685Z,23.17
2019-04-26T09:50:11.344Z,22.10
2019-04-26T09:52:44.897Z,23.13
2019-04-26T09:55:14.413Z,22.70
2019-04-26T09:57:43.812Z,23.15
2019-04-26T10:00:15.788Z,22.96
2019-04-26T10:02:45.387Z,21.67
2019-04-26T10:05:17.705Z,22.14
2019-04-26T10:07:46.104Z,22.99
2019-04-26T10:10:23.112Z,23.06
2019-04-26T10:13:06.923Z,22.61
2019-04-26T10:15:43.839Z,22.56
2019-04-26T10:18:14.863Z,22.31
2019-04-26T10:20:44.324Z,22.23
2019-04-26T10:23:13.778Z,22.64
2019-04-26T10:25:43.246Z,22.11
2019-04-26T10:28:15.951Z,22.74
2019-04-26T10:30:44.028Z,22.65
2019-04-26T10:33:13.426Z,23.01
2019-04-26T10:35:42.961Z,22.98
2019-04-26T10:38:12.350Z,23.88
2019-04-26T10:40:41.810Z,24.24
2019-04-26T10:43:11.658Z,23.44
2019-04-26T10:45:45.430Z,23.40
2019-04-26T10:48:15.242Z,24.09
2019-04-26T10:50:44.827Z,23.94
2019-04-26T10:53:21.602Z,23.54
2019-04-26T10:56:07.510Z,23.79
2019-04-26T10:58:55.037Z,23.17
2019-04-26T11:01:24.579Z,23.21
2019-04-26T11:03:54.045Z,23.18
2019-04-26T11:06:24.130Z,22.91
2019-04-26T11:08:54.772Z,22.89
2019-04-26T11:11:24.239Z,23.46
2019-04-26T11:13:53.695Z,23.34
2019-04-26T11:16:23.230Z,23.19
2019-04-26T11:18:52.618Z,23.23
2019-04-26T11:21:22.463Z,23.36
2019-04-26T11:23:51.885Z,22.95
2019-04-26T11:26:21.274Z,23.36
2019-04-26T11:28:51.285Z,23.67
2019-04-26T11:31:23.278Z,23.09
2019-04-26T11:34:04.446Z,22.94
2019-04-26T11:36:24.078Z,22.93
2019-04-26T11:38:53.581Z,23.13
2019-04-26T11:41:22.934Z,23.59
2019-04-26T11:43:53.001Z,23.80
2019-04-26T11:46:29.246Z,23.92
2019-04-26T11:48:59.229Z,24.14
2019-04-26T11:51:27.603Z,24.67
2019-04-26T11:53:56.737Z,24.93
2019-04-26T11:56:26.143Z,24.86
2019-04-26T11:58:56.838Z,25.30
2019-04-26T12:01:28.389Z,25.70
2019-04-26T12:04:15.865Z,26.50
2019-04-26T12:06:49.857Z,25.98
2019-04-26T12:09:24.712Z,25.40
2019-04-26T12:12:04.455Z,26.25
2019-04-26T12:14:25.264Z,25.72
2019-04-26T12:16:58.896Z,26.30
2019-04-26T12:19:25.741Z,25.53
2019-04-26T12:21:55.174Z,25.93
2019-04-26T12:24:29.678Z,26.10
2019-04-26T12:26:57.591Z,26.13
2019-04-26T12:29:26.983Z,26.87
2019-04-26T12:31:56.370Z,26.54
2019-04-26T12:34:26.098Z,26.28
2019-04-26T12:36:55.478Z,27.25
2019-04-26T12:39:25.349Z,27.76
2019-04-26T12:41:54.754Z,27.38
2019-04-26T12:44:25.852Z,26.87
2019-04-26T12:46:59.358Z,27.55
2019-04-26T12:49:27.971Z,27.41
2019-04-26T12:51:57.376Z,26.82
2019-04-26T12:54:26.761Z,27.03
2019-04-26T12:56:56.180Z,26.39
2019-04-26T12:59:26.503Z,26.11
2019-04-26T13:02:05.580Z,26.54
2019-04-26T13:04:36.004Z,26.23
2019-04-26T13:07:07.088Z,25.86
2019-04-26T13:09:37.280Z,25.49
2019-04-26T13:12:14.319Z,25.44
2019-04-26T13:14:45.420Z,25.55
2019-04-26T13:17:35.630Z,25.82
2019-04-26T13:20:03.977Z,25.52
2019-04-26T13:22:45.408Z,25.14
2019-04-26T13:25:15.354Z,25.30
2019-04-26T13:27:37.545Z,25.48
2019-04-26T13:30:10.694Z,26.10
2019-04-26T13:32:38.671Z,26.44
2019-04-26T13:35:11.277Z,26.71
2019-04-26T13:37:39.280Z,25.87
2019-04-26T13:40:08.748Z,25.92
2019-04-26T13:42:38.201Z,25.36
2019-04-26T13:45:14.967Z,25.01
2019-04-26T13:47:48.691Z,25.11
2019-04-26T13:50:26.652Z,24.58
2019-04-26T13:52:56.869Z,24.42
2019-04-26T13:55:29.461Z,24.51
2019-04-26T13:57:57.424Z,24.35
2019-04-26T14:00:28.513Z,24.07
2019-04-26T14:02:58.271Z,24.47
2019-04-26T14:05:27.720Z,24.42
2019-04-26T14:07:57.118Z,24.32
2019-04-26T14:10:26.520Z,23.75
2019-04-26T14:12:55.913Z,23.58
2019-04-26T14:15:25.330Z,23.43
2019-04-26T14:17:54.771Z,23.72
2019-04-26T14:20:24.493Z,24.40
2019-04-26T14:22:58.498Z,24.92
2019-04-26T14:25:30.704Z,25.02
2019-04-26T14:28:00.205Z,25.97
2019-04-26T14:30:29.591Z,25.18
2019-04-26T14:32:58.976Z,25.06
2019-04-26T14:35:28.378Z,25.04
2019-04-26T14:37:57.765Z,25.09
2019-04-26T14:40:27.203Z,25.32
2019-04-26T14:43:06.654Z,25.09
2019-04-26T14:45:27.760Z,25.10
2019-04-26T14:48:00.272Z,25.16
2019-04-26T14:50:31.930Z,24.94
2019-04-26T14:53:02.272Z,25.44
2019-04-26T14:55:30.568Z,24.81
2019-04-26T14:57:59.965Z,25.00
2019-04-26T15:00:30.985Z,25.12
2019-04-26T15:03:07.932Z,25.17
2019-04-26T15:05:45.173Z,25.00
2019-04-26T15:08:13.375Z,24.39
2019-04-26T15:10:46.686Z,24.91
2019-04-26T15:13:19.969Z,24.69
2019-04-26T15:15:46.286Z,24.94
2019-04-26T15:18:16.803Z,25.20
2019-04-26T15:20:46.255Z,24.65
2019-04-26T15:23:19.450Z,24.39
2019-04-26T15:25:48.846Z,24.20
2019-04-26T15:28:17.842Z,24.99
2019-04-26T15:30:47.298Z,24.81
2019-04-26T15:33:16.749Z,24.29
2019-04-26T15:35:47.216Z,24.07
2019-04-26T15:38:16.663Z,24.14
2019-04-26T15:40:53.404Z,24.69
2019-04-26T15:43:27.120Z,23.86
2019-04-26T15:46:08.178Z,24.03
2019-04-26T15:48:39.286Z,23.19
2019-04-26T15:51:09.125Z,23.09
2019-04-26T15:53:38.522Z,22.92
2019-04-26T15:56:10.085Z,22.68
2019-04-26T15:58:47.247Z,22.65
2019-04-26T16:01:10.856Z,22.28
2019-04-26T16:03:44.554Z,22.65
2019-04-26T16:06:12.652Z,22.50
2019-04-26T16:08:43.776Z,22.87
2019-04-26T16:11:13.356Z,22.34
2019-04-26T16:13:45.244Z,22.56
2019-04-26T16:16:16.400Z,22.21
2019-04-26T16:18:49.891Z,22.31
2019-04-26T16:21:17.964Z,22.30
2019-04-26T16:23:53.023Z,22.14
2019-04-26T16:26:19.208Z,22.73
2019-04-26T16:28:50.232Z,22.28
2019-04-26T16:31:27.255Z,22.36
2019-04-26T16:33:58.283Z,21.73
2019-04-26T16:36:27.683Z,22.11
2019-04-26T16:38:58.053Z,21.98
2019-04-26T16:41:27.510Z,21.95
2019-04-26T16:43:58.837Z,21.95
2019-04-26T16:46:28.219Z,21.66
2019-04-26T16:49:03.760Z,21.40
2019-04-26T16:51:28.700Z,21.37
2019-04-26T16:56:29.262Z,21.21
2019-04-26T16:58:58.653Z,21.59
2019-04-26T17:01:28.052Z,21.11
2019-04-26T17:03:57.450Z,20.93
2019-04-26T17:06:26.828Z,21.11
2019-04-26T17:09:01.149Z,20.80
2019-04-26T17:09:38.414Z,21.19
2019-04-26T17:11:30.209Z,20.62
2019-04-26T17:14:04.084Z,20.69
2019-04-26T17:16:33.959Z,20.46
2019-04-26T17:19:00.750Z,20.26
2019-04-26T17:21:34.503Z,20.24
2019-04-26T17:24:22.852Z,20.16
2019-04-26T17:26:53.948Z,20.07
2019-04-26T17:29:23.840Z,20.19
2019-04-26T17:31:54.070Z,20.00
2019-04-26T17:34:29.016Z,19.76
2019-04-26T17:36:55.475Z,19.85
2019-04-26T17:39:24.916Z,19.63
2019-04-26T17:41:55.166Z,19.98
2019-04-26T17:44:26.677Z,20.03
2019-04-26T17:46:59.712Z,19.60
2019-04-26T17:49:29.331Z,18.97
2019-04-26T17:52:01.911Z,18.89
2019-04-26T17:54:43.812Z,19.07
2019-04-26T17:57:04.479Z,19.07
2019-04-26T17:59:36.356Z,19.04
2019-04-26T18:02:18.083Z,19.36
2019-04-26T18:04:38.122Z,19.19
2019-04-26T18:07:36.420Z,19.20
2019-04-26T18:09:46.038Z,18.87
2019-04-26T18:12:11.896Z,18.99
2019-04-26T18:14:41.278Z,18.83
2019-04-26T18:17:12.314Z,18.72
2019-04-26T18:19:43.322Z,18.71
2019-04-26T18:22:14.688Z,18.57
2019-04-26T18:24:44.106Z,18.47
2019-04-26T18:27:14.805Z,18.53
2019-04-26T18:29:44.215Z,18.48
2019-04-26T18:32:13.604Z,18.30
2019-04-26T18:34:43.113Z,18.27
2019-04-26T18:37:13.269Z,18.19
2019-04-26T18:39:43.128Z,18.03
2019-04-26T18:42:13.949Z,18.20
2019-04-26T18:44:47.818Z,18.26
2019-04-26T18:47:26.282Z,18.05
2019-04-26T18:49:58.153Z,18.03
2019-04-26T18:52:26.329Z,17.92
2019-04-26T18:55:05.962Z,17.91
2019-04-26T18:57:35.356Z,17.93
2019-04-26T19:00:08.977Z,17.78
2019-04-26T19:02:40.023Z,17.59
2019-04-26T19:05:12.231Z,17.63
2019-04-26T19:07:40.811Z,17.59
2019-04-26T19:10:12.100Z,17.48
2019-04-26T19:12:43.716Z,17.55
2019-04-26T19:15:19.217Z,17.39
2019-04-26T19:17:53.344Z,17.40
2019-04-26T19:20:33.429Z,17.49
2019-04-26T19:23:04.366Z,17.51
2019-04-26T19:25:40.522Z,17.67
2019-04-26T19:28:08.132Z,17.76
2019-04-26T19:30:39.973Z,18.27
2019-04-26T19:33:11.583Z,17.97
2019-04-26T19:35:43.974Z,18.00
2019-04-26T19:38:14.425Z,17.85
2019-04-26T19:40:46.410Z,17.87
2019-04-26T19:43:27.709Z,18.25
2019-04-26T19:45:53.182Z,18.31
2019-04-26T19:48:32.870Z,17.86
2019-04-26T19:51:23.683Z,17.14
2019-04-26T19:53:54.604Z,17.15
2019-04-26T19:56:28.754Z,17.02
2019-04-26T19:58:58.752Z,16.97
2019-04-26T20:01:28.482Z,16.94
2019-04-26T20:03:57.957Z,16.84
2019-04-26T20:06:27.339Z,16.56
2019-04-26T20:08:56.734Z,16.29
2019-04-26T20:11:26.122Z,16.39
2019-04-26T20:13:55.743Z,16.11
2019-04-26T20:16:25.974Z,15.86
2019-04-26T20:18:55.516Z,15.96
2019-04-26T20:21:24.922Z,16.23
2019-04-26T20:23:54.665Z,16.33
2019-04-26T20:26:24.148Z,16.40
2019-04-26T20:28:53.561Z,16.46
2019-04-26T20:31:24.579Z,16.45
2019-04-26T20:33:54.216Z,16.44
2019-04-26T20:36:23.673Z,16.54
2019-04-26T20:38:53.075Z,16.78
2019-04-26T20:41:22.642Z,17.02
2019-04-26T20:44:04.464Z,17.19
2019-04-26T20:46:25.096Z,17.28
2019-04-26T20:48:54.249Z,17.28
2019-04-26T20:51:24.147Z,17.19
2019-04-26T20:53:53.845Z,17.09
2019-04-26T20:56:24.195Z,17.02
2019-04-26T20:58:53.578Z,17.06
2019-04-26T21:01:22.957Z,16.81
2019-04-26T21:03:52.437Z,16.60
2019-04-26T21:06:22.322Z,16.38
2019-04-26T21:08:53.941Z,16.28
2019-04-26T21:11:23.043Z,16.30
2019-04-26T21:13:52.560Z,16.25
2019-04-26T21:16:22.205Z,16.24
2019-04-26T21:18:52.423Z,16.32
2019-04-26T21:21:22.049Z,16.64
2019-04-26T21:23:52.106Z,16.47
2019-04-26T21:26:25.870Z,16.25
2019-04-26T21:29:08.402Z,16.67
2019-04-26T21:31:40.908Z,16.55
2019-04-26T21:34:15.135Z,16.60
2019-04-26T21:36:47.560Z,16.80
2019-04-26T21:39:24.791Z,16.46
2019-04-26T21:41:55.879Z,16.40
2019-04-26T21:44:25.260Z,16.39
2019-04-26T21:46:58.580Z,16.47
2019-04-26T21:49:26.065Z,16.88
2019-04-26T21:51:55.841Z,16.68
2019-04-26T21:54:25.391Z,16.75
2019-04-26T21:56:54.782Z,16.76
2019-04-26T21:59:24.463Z,16.97
2019-04-26T22:01:59.095Z,16.89
2019-04-26T22:04:28.756Z,16.69
2019-04-26T22:06:59.847Z,16.55
2019-04-26T22:09:34.982Z,16.68
2019-04-26T22:12:00.345Z,16.80
2019-04-26T22:14:31.433Z,17.40
2019-04-26T22:17:05.551Z,16.93
2019-04-26T22:19:36.564Z,17.15
2019-04-26T22:22:07.658Z,16.55
2019-04-26T22:24:39.660Z,16.10
2019-04-26T22:27:10.175Z,16.87
2019-04-26T22:29:39.624Z,15.67
2019-04-26T22:32:11.455Z,15.86
2019-04-26T22:34:42.793Z,16.09
2019-04-26T22:37:12.910Z,16.09
2019-04-26T22:39:44.358Z,16.06
2019-04-26T22:42:14.162Z,16.22
2019-04-26T22:44:45.200Z,16.42
2019-04-26T22:47:18.643Z,15.83
2019-04-26T22:49:48.100Z,15.42
2019-04-26T22:52:18.382Z,15.53
2019-04-26T22:54:48.320Z,15.00
2019-04-26T22:57:17.982Z,15.39
2019-04-26T22:59:50.541Z,15.56
2019-04-26T23:02:25.871Z,15.13
2019-04-26T23:04:50.910Z,14.74
2019-04-26T23:07:23.244Z,15.08
2019-04-26T23:09:53.453Z,14.81
2019-04-26T23:12:40.051Z,14.67
2019-04-26T23:15:23.943Z,14.99
2019-04-26T23:17:58.568Z,14.78
2019-04-26T23:20:34.286Z,14.71
2019-04-26T23:23:05.212Z,14.86
2019-04-26T23:25:34.469Z,15.01
2019-04-26T23:28:04.820Z,14.82
2019-04-26T23:30:34.275Z,15.09
2019-04-26T23:33:04.015Z,14.49
2019-04-26T23:35:37.436Z,14.39
2019-04-26T23:38:05.469Z,14.67
2019-04-26T23:40:35.004Z,14.93
2019-04-26T23:43:04.383Z,14.51
2019-04-26T23:45:34.043Z,14.40
2019-04-26T23:48:03.653Z,14.05
2019-04-26T23:50:34.066Z,14.40
2019-04-26T23:53:03.510Z,14.12
2019-04-26T23:55:33.813Z,14.31
2019-04-26T23:58:04.902Z,14.15
